createdAt,value
2018-08-24T00:00:40.853Z,0.00
2018-08-24T00:01:40.807Z,0.00
2018-08-24T00:02:40.774Z,0.00
2018-08-24T00:03:40.779Z,0.00
2018-08-24T00:04:40.740Z,0.00
2018-08-24T00:05:42.728Z,0.00
2018-08-24T00:06:40.688Z,0.00
2018-08-24T00:07:40.690Z,0.00
2018-08-24T00:08:40.648Z,0.00
2018-08-24T00:09:40.622Z,0.00
2018-08-24T00:10:40.600Z,0.00
2018-08-24T00:11:40.580Z,0.00
2018-08-24T00:12:40.550Z,0.00
2018-08-24T00:13:40.546Z,0.00
2018-08-24T00:14:40.513Z,0.00
2018-08-24T00:15:40.488Z,0.00
2018-08-24T00:16:40.462Z,0.00
2018-08-24T00:17:40.453Z,0.00
2018-08-24T00:18:40.420Z,0.00
2018-08-24T00:19:40.402Z,0.00
2018-08-24T00:20:40.370Z,0.00
2018-08-24T00:21:40.362Z,0.00
2018-08-24T00:22:40.332Z,0.00
2018-08-24T00:23:40.325Z,0.00
2018-08-24T00:24:40.296Z,0.00
2018-08-24T00:26:26.504Z,0.00
2018-08-24T00:27:26.462Z,0.00
2018-08-24T00:28:26.434Z,0.00
2018-08-24T00:29:26.416Z,0.00
2018-08-24T00:30:26.410Z,0.00
2018-08-24T00:31:26.373Z,0.00
2018-08-24T00:32:26.350Z,0.00
2018-08-24T00:33:26.327Z,0.00
2018-08-24T00:34:26.301Z,0.00
2018-08-24T00:35:26.289Z,0.00
2018-08-24T00:36:26.270Z,0.00
2018-08-24T00:37:26.242Z,0.00
2018-08-24T00:38:26.218Z,0.00
2018-08-24T00:39:26.195Z,0.00
2018-08-24T00:40:26.172Z,0.00
2018-08-24T00:41:26.160Z,0.00
2018-08-24T00:42:26.134Z,0.00
2018-08-24T00:43:27.111Z,0.00
2018-08-24T00:44:26.091Z,0.00
2018-08-24T00:45:26.063Z,0.00
2018-08-24T00:46:26.035Z,0.00
2018-08-24T00:47:26.025Z,0.00
2018-08-24T00:48:25.995Z,0.00
2018-08-24T00:49:26.986Z,0.00
2018-08-24T00:50:25.959Z,0.00
2018-08-24T00:51:26.958Z,0.00
2018-08-24T00:52:26.918Z,0.00
2018-08-24T00:53:25.909Z,0.00
2018-08-24T00:54:25.880Z,0.00
2018-08-24T00:55:25.908Z,0.00
2018-08-24T00:56:25.831Z,0.00
2018-08-24T00:57:25.810Z,0.00
2018-08-24T00:58:25.784Z,0.00
2018-08-24T00:59:25.770Z,0.00
2018-08-24T01:00:25.735Z,0.00
2018-08-24T01:01:25.716Z,0.00
2018-08-24T01:02:25.719Z,0.00
2018-08-24T01:04:12.599Z,0.00
2018-08-24T01:05:12.553Z,0.00
2018-08-24T01:06:12.506Z,0.00
2018-08-24T01:07:12.494Z,0.00
2018-08-24T01:08:12.471Z,0.00
2018-08-24T01:09:12.461Z,0.00
2018-08-24T01:10:12.425Z,0.00
2018-08-24T01:11:12.449Z,0.00
2018-08-24T01:12:12.382Z,0.00
2018-08-24T01:13:12.360Z,0.00
2018-08-24T01:14:12.343Z,0.00
2018-08-24T01:15:13.335Z,0.00
2018-08-24T01:16:12.294Z,0.00
2018-08-24T01:17:12.275Z,0.00
2018-08-24T01:18:12.249Z,0.00
2018-08-24T01:19:12.235Z,0.00
2018-08-24T01:20:12.200Z,0.00
2018-08-24T01:21:12.195Z,0.00
2018-08-24T01:22:12.152Z,0.00
2018-08-24T01:23:12.133Z,0.00
2018-08-24T01:24:12.124Z,0.00
2018-08-24T01:25:12.103Z,0.00
2018-08-24T01:26:12.060Z,0.00
2018-08-24T01:27:13.054Z,0.00
2018-08-24T01:28:12.055Z,0.00
2018-08-24T01:29:12.016Z,0.00
2018-08-24T01:30:11.988Z,0.00
2018-08-24T01:31:11.980Z,0.00
2018-08-24T01:32:11.943Z,0.00
2018-08-24T01:34:07.566Z,0.00
2018-08-24T01:35:07.507Z,0.00
2018-08-24T01:36:07.456Z,0.00
2018-08-24T01:37:08.451Z,0.00
2018-08-24T01:38:07.411Z,0.00
2018-08-24T01:39:08.437Z,0.00
2018-08-24T01:40:07.359Z,0.00
2018-08-24T01:41:18.270Z,0.00
2018-08-24T01:42:07.350Z,0.00
2018-08-24T02:32:00.117Z,0.00
2018-08-24T02:32:58.527Z,0.00
2018-08-24T02:33:58.502Z,0.00
2018-08-24T02:34:58.460Z,0.00
2018-08-24T02:35:58.448Z,0.00
2018-08-24T02:36:58.462Z,0.00
2018-08-24T02:37:58.399Z,0.00
2018-08-24T02:38:58.380Z,0.00
2018-08-24T02:39:58.372Z,0.00
2018-08-24T02:40:58.356Z,0.00
2018-08-24T02:41:58.323Z,0.00
2018-08-24T02:42:58.289Z,0.00
2018-08-24T02:43:58.341Z,0.00
2018-08-24T02:44:58.290Z,0.00
2018-08-24T02:45:58.248Z,0.00
2018-08-24T02:46:58.195Z,0.00
2018-08-24T02:47:58.179Z,0.00
2018-08-24T02:48:58.158Z,0.00
2018-08-24T02:49:58.135Z,0.00
2018-08-24T02:50:58.106Z,0.00
2018-08-24T02:51:58.089Z,0.00
2018-08-24T02:52:58.059Z,0.00
2018-08-24T02:53:58.043Z,0.00
2018-08-24T02:54:58.017Z,0.00
2018-08-24T02:55:58.000Z,0.00
2018-08-24T02:56:57.980Z,0.00
2018-08-24T02:58:45.136Z,0.00
2018-08-24T02:59:45.062Z,0.00
2018-08-24T03:00:45.042Z,0.00
2018-08-24T03:01:45.013Z,0.00
2018-08-24T03:02:44.996Z,0.00
2018-08-24T03:03:44.998Z,0.00
2018-08-24T03:04:44.940Z,0.00
2018-08-24T03:05:44.978Z,0.00
2018-08-24T03:06:44.902Z,0.00
2018-08-24T03:07:44.888Z,0.00
2018-08-24T03:08:44.858Z,0.00
2018-08-24T03:09:44.830Z,0.00
2018-08-24T03:10:44.802Z,0.00
2018-08-24T03:11:44.791Z,0.00
2018-08-24T03:12:44.775Z,0.00
2018-08-24T03:14:30.677Z,0.00
2018-08-24T03:15:30.633Z,0.00
2018-08-24T03:16:30.656Z,0.00
2018-08-24T03:17:30.591Z,0.00
2018-08-24T03:18:30.548Z,0.00
2018-08-24T03:19:30.527Z,0.00
2018-08-24T03:20:30.504Z,0.00
2018-08-24T03:21:30.492Z,0.00
2018-08-24T03:22:30.459Z,0.00
2018-08-24T03:23:30.454Z,0.00
2018-08-24T03:24:30.411Z,0.00
2018-08-24T03:25:30.408Z,0.00
2018-08-24T03:26:30.365Z,0.00
2018-08-24T03:27:30.371Z,0.00
2018-08-24T03:28:30.316Z,0.00
2018-08-24T03:29:31.316Z,0.00
2018-08-24T03:30:30.292Z,0.00
2018-08-24T03:31:30.274Z,0.00
2018-08-24T03:32:30.235Z,0.00
2018-08-24T03:33:30.236Z,0.00
2018-08-24T03:35:16.480Z,0.00
2018-08-24T03:36:16.432Z,0.00
2018-08-24T03:37:16.416Z,0.00
2018-08-24T03:38:16.385Z,0.00
2018-08-24T03:39:16.351Z,0.00
2018-08-24T03:40:16.340Z,0.00
2018-08-24T03:41:16.309Z,0.00
2018-08-24T03:42:16.293Z,0.00
2018-08-24T03:43:16.296Z,0.00
2018-08-24T03:44:16.266Z,0.00
2018-08-24T03:45:16.230Z,0.00
2018-08-24T03:46:17.208Z,0.00
2018-08-24T03:47:16.213Z,0.00
2018-08-24T03:48:16.171Z,0.00
2018-08-24T03:49:16.134Z,0.00
2018-08-24T03:50:16.130Z,0.00
2018-08-24T03:51:16.103Z,0.00
2018-08-24T03:52:16.070Z,0.00
2018-08-24T03:53:16.089Z,0.00
2018-08-24T03:54:16.036Z,0.00
2018-08-24T03:55:16.008Z,0.00
2018-08-24T03:56:15.989Z,0.00
2018-08-24T03:57:15.975Z,0.00
2018-08-24T03:58:15.951Z,0.00
2018-08-24T03:59:15.908Z,0.00
2018-08-24T04:00:15.897Z,0.00
2018-08-24T04:01:15.880Z,4.00
2018-08-24T04:02:15.846Z,4.00
2018-08-24T04:03:15.825Z,0.00
2018-08-24T04:05:01.450Z,4.00
2018-08-24T04:06:01.385Z,4.00
2018-08-24T04:07:01.374Z,4.00
2018-08-24T04:08:01.357Z,8.00
2018-08-24T04:09:01.328Z,4.00
2018-08-24T05:05:27.065Z,476.00
2018-08-24T06:34:13.702Z,1908.00
2018-08-24T06:34:56.091Z,1988.00
2018-08-24T06:35:57.137Z,1988.00
2018-08-24T06:36:56.119Z,1848.00
2018-08-24T06:37:58.068Z,1708.00
2018-08-24T06:38:55.968Z,1928.00
2018-08-24T06:40:01.775Z,2004.00
2018-08-24T06:40:55.950Z,2128.00
2018-08-24T06:41:56.040Z,2168.00
2018-08-24T06:42:55.874Z,2300.00
2018-08-24T06:43:55.933Z,2536.00
2018-08-24T06:44:55.864Z,2700.00
2018-08-24T06:46:42.333Z,1936.00
2018-08-24T06:47:42.358Z,2640.00
2018-08-24T06:48:42.228Z,2432.00
2018-08-24T06:49:42.244Z,2652.00
2018-08-24T06:50:42.181Z,2104.00
2018-08-24T06:51:48.131Z,1996.00
2018-08-24T06:52:42.214Z,2240.00
2018-08-24T06:53:48.199Z,1968.00
2018-08-24T06:54:42.096Z,2076.00
2018-08-24T06:55:47.101Z,2304.00
2018-08-24T06:56:42.086Z,2172.00
2018-08-24T06:58:11.635Z,2100.00
2018-08-24T06:59:50.743Z,2052.00
2018-08-24T07:00:50.713Z,2056.00
2018-08-24T07:01:50.537Z,1576.00
2018-08-24T07:02:50.550Z,1436.00
2018-08-24T07:03:50.586Z,1472.00
2018-08-24T07:04:50.451Z,1164.00
2018-08-24T07:05:50.638Z,1240.00
2018-08-24T07:06:50.394Z,1340.00
2018-08-24T07:07:50.452Z,1032.00
2018-08-24T07:08:50.360Z,552.00
2018-08-24T07:09:50.363Z,732.00
2018-08-24T07:10:50.323Z,952.00
2018-08-24T07:11:50.383Z,1724.00
2018-08-24T07:12:50.320Z,2176.00
2018-08-24T07:13:50.288Z,2376.00
2018-08-24T07:14:36.268Z,2536.00
2018-08-24T07:15:36.205Z,2700.00
2018-08-24T07:16:36.283Z,2260.00
2018-08-24T07:17:36.189Z,2496.00
2018-08-24T07:18:36.209Z,1820.00
2018-08-24T07:19:36.107Z,1668.00
2018-08-24T07:20:36.117Z,1160.00
2018-08-24T07:21:36.066Z,1272.00
2018-08-24T07:22:36.115Z,2384.00
2018-08-24T07:23:36.032Z,2856.00
2018-08-24T07:24:36.037Z,2148.00
2018-08-24T07:25:35.991Z,1464.00
2018-08-24T07:26:35.964Z,1676.00
2018-08-24T07:27:35.917Z,2264.00
2018-08-24T07:28:35.963Z,2760.00
2018-08-24T07:29:35.893Z,2096.00
2018-08-24T07:31:27.065Z,1740.00
2018-08-24T07:32:27.008Z,2472.00
2018-08-24T07:33:27.089Z,2052.00
2018-08-24T07:34:26.966Z,2012.00
2018-08-24T07:35:27.004Z,2316.00
2018-08-24T07:36:26.917Z,2592.00
2018-08-24T07:37:27.935Z,2776.00
2018-08-24T07:38:26.904Z,2972.00
2018-08-24T07:39:27.952Z,2440.00
2018-08-24T07:40:26.825Z,2152.00
2018-08-24T07:41:26.859Z,1888.00
2018-08-24T07:42:26.784Z,2356.00
2018-08-24T07:43:26.819Z,2792.00
2018-08-24T07:44:26.745Z,2864.00
2018-08-24T07:45:26.839Z,3028.00
2018-08-24T07:46:26.694Z,2824.00
2018-08-24T07:47:26.758Z,2704.00
2018-08-24T07:48:26.651Z,2520.00
2018-08-24T07:49:26.658Z,2468.00
2018-08-24T07:50:26.617Z,2444.00
2018-08-24T07:51:26.675Z,2312.00
2018-08-24T07:52:26.579Z,2344.00
2018-08-24T07:54:12.483Z,2144.00
2018-08-24T07:55:12.387Z,2060.00
2018-08-24T07:56:12.489Z,1932.00
2018-08-24T07:57:12.357Z,1664.00
2018-08-24T07:58:12.334Z,1232.00
2018-08-24T07:59:12.320Z,1188.00
2018-08-24T08:00:12.323Z,1596.00
2018-08-24T08:01:12.293Z,1772.00
2018-08-24T08:02:12.233Z,1648.00
2018-08-24T08:03:12.213Z,1524.00
2018-08-24T08:04:59.130Z,1920.00
2018-08-24T08:05:59.148Z,1728.00
2018-08-24T08:07:52.920Z,1528.00
2018-08-24T08:08:52.976Z,1832.00
2018-08-24T08:09:52.903Z,1760.00
2018-08-24T08:10:52.816Z,1604.00
2018-08-24T08:11:52.822Z,1476.00
2018-08-24T08:12:52.811Z,1644.00
2018-08-24T08:13:52.769Z,1988.00
2018-08-24T08:14:52.746Z,2440.00
2018-08-24T08:15:52.704Z,2800.00
2018-08-24T08:16:52.772Z,3256.00
2018-08-24T08:17:52.680Z,3548.00
2018-08-24T08:18:52.642Z,3816.00
2018-08-24T08:19:52.785Z,3912.00
2018-08-24T08:20:52.597Z,3668.00
2018-08-24T08:21:52.584Z,4300.00
2018-08-24T08:22:52.709Z,3904.00
2018-08-24T08:23:52.528Z,4316.00
2018-08-24T08:24:52.632Z,4600.00
2018-08-24T08:25:52.495Z,4764.00
2018-08-24T08:26:52.631Z,4872.00
2018-08-24T08:27:52.443Z,4888.00
2018-08-24T08:29:39.250Z,4356.00
2018-08-24T08:30:39.173Z,4188.00
2018-08-24T08:31:39.155Z,3852.00
2018-08-24T08:32:39.141Z,3596.00
2018-08-24T08:33:39.110Z,3148.00
2018-08-24T08:34:39.092Z,3144.00
2018-08-24T08:35:39.066Z,2840.00
2018-08-24T08:36:39.043Z,2592.00
2018-08-24T08:37:39.042Z,2832.00
2018-08-24T08:38:38.989Z,2912.00
2018-08-24T08:39:39.098Z,3024.00
2018-08-24T08:40:38.964Z,3256.00
2018-08-24T08:41:38.971Z,3464.00
2018-08-24T08:42:38.919Z,3560.00
2018-08-24T08:43:38.886Z,3556.00
2018-08-24T08:44:38.852Z,3656.00
2018-08-24T08:45:38.840Z,3616.00
2018-08-24T08:47:30.306Z,3888.00
2018-08-24T08:48:30.247Z,3640.00
2018-08-24T08:50:28.152Z,4556.00
2018-08-24T08:51:27.943Z,5224.00
2018-08-24T08:52:27.906Z,4916.00
2018-08-24T08:53:27.926Z,5312.00
2018-08-24T08:54:27.850Z,6072.00
2018-08-24T08:55:27.836Z,6376.00
2018-08-24T08:56:27.807Z,5704.00
2018-08-24T08:57:27.783Z,4948.00
2018-08-24T08:58:27.757Z,5176.00
2018-08-24T08:59:27.742Z,5320.00
2018-08-24T09:00:27.713Z,6068.00
2018-08-24T09:01:27.685Z,6268.00
2018-08-24T09:02:27.664Z,6672.00
2018-08-24T09:03:27.642Z,6452.00
2018-08-24T09:04:27.625Z,5608.00
2018-08-24T09:05:27.633Z,5160.00
2018-08-24T09:06:27.647Z,4972.00
2018-08-24T09:07:27.696Z,4552.00
2018-08-24T09:08:27.531Z,4476.00
2018-08-24T09:09:27.525Z,3724.00
2018-08-24T09:10:27.479Z,3328.00
2018-08-24T09:11:27.471Z,3404.00
2018-08-24T09:12:27.437Z,3828.00
2018-08-24T09:13:27.419Z,3452.00
2018-08-24T09:14:27.393Z,3160.00
2018-08-24T09:15:27.364Z,3308.00
2018-08-24T09:16:27.340Z,4020.00
2018-08-24T09:17:27.326Z,4032.00
2018-08-24T09:18:27.362Z,4336.00
2018-08-24T09:19:27.304Z,5012.00
2018-08-24T09:20:27.253Z,6812.00
2018-08-24T09:22:13.562Z,4868.00
2018-08-24T09:23:13.497Z,4580.00
2018-08-24T09:24:13.497Z,4208.00
2018-08-24T09:25:13.500Z,5292.00
2018-08-24T09:26:13.442Z,5908.00
2018-08-24T09:27:13.401Z,3952.00
2018-08-24T09:28:13.383Z,3172.00
2018-08-24T09:29:13.354Z,3824.00
2018-08-24T09:30:13.335Z,4128.00
2018-08-24T09:31:13.353Z,3736.00
2018-08-24T09:32:13.321Z,3860.00
2018-08-24T09:33:13.271Z,3152.00
2018-08-24T09:34:13.249Z,2592.00
2018-08-24T09:35:13.231Z,2412.00
2018-08-24T09:36:13.202Z,2532.00
2018-08-24T09:37:13.174Z,3252.00
2018-08-24T09:38:13.171Z,3224.00
2018-08-24T09:39:13.143Z,2636.00
2018-08-24T09:40:13.112Z,2928.00
2018-08-24T09:41:13.100Z,2552.00
2018-08-24T09:43:00.519Z,2372.00
2018-08-24T09:43:59.302Z,2368.00
2018-08-24T09:44:59.279Z,2272.00
2018-08-24T09:45:59.261Z,2576.00
2018-08-24T09:46:59.243Z,3276.00
2018-08-24T09:47:59.212Z,2752.00
2018-08-24T09:48:59.258Z,2836.00
2018-08-24T09:49:59.169Z,2964.00
2018-08-24T09:50:59.150Z,3168.00
2018-08-24T09:51:59.111Z,3728.00
2018-08-24T09:52:59.117Z,3572.00
2018-08-24T09:53:59.079Z,4040.00
2018-08-24T09:54:59.052Z,4856.00
2018-08-24T09:55:59.040Z,4044.00
2018-08-24T09:56:59.059Z,3428.00
2018-08-24T09:57:58.988Z,3320.00
2018-08-24T09:58:58.960Z,4500.00
2018-08-24T09:59:58.932Z,3900.00
2018-08-24T10:00:58.929Z,3148.00
2018-08-24T10:02:45.479Z,3168.00
2018-08-24T10:03:45.413Z,3480.00
2018-08-24T10:04:45.496Z,3260.00
2018-08-24T10:05:45.366Z,3500.00
2018-08-24T10:06:46.495Z,3536.00
2018-08-24T10:07:45.327Z,4344.00
2018-08-24T10:08:46.335Z,5428.00
2018-08-24T10:09:45.284Z,5816.00
2018-08-24T10:10:45.323Z,4748.00
2018-08-24T10:11:45.227Z,4568.00
2018-08-24T10:12:46.265Z,4008.00
2018-08-24T10:13:45.180Z,4128.00
2018-08-24T10:14:46.270Z,3488.00
2018-08-24T10:15:45.137Z,2384.00
2018-08-24T10:16:46.188Z,2220.00
2018-08-24T10:17:45.090Z,2416.00
2018-08-24T10:18:46.131Z,3196.00
2018-08-24T10:19:45.057Z,3012.00
2018-08-24T10:20:45.096Z,2792.00
2018-08-24T10:21:45.007Z,3224.00
2018-08-24T10:22:45.012Z,2500.00
2018-08-24T10:23:44.970Z,2100.00
2018-08-24T10:24:46.032Z,2028.00
2018-08-24T10:25:45.072Z,2328.00
2018-08-24T10:26:44.946Z,2920.00
2018-08-24T10:27:44.861Z,2680.00
2018-08-24T10:28:44.841Z,2648.00
2018-08-24T10:29:44.854Z,2460.00
2018-08-24T10:30:44.795Z,1940.00
2018-08-24T10:31:45.882Z,1940.00
2018-08-24T10:32:44.757Z,2536.00
2018-08-24T10:33:45.828Z,2704.00
2018-08-24T10:34:44.691Z,3216.00
2018-08-24T10:35:44.685Z,3616.00
2018-08-24T10:36:44.732Z,4100.00
2018-08-24T10:38:33.842Z,5252.00
2018-08-24T10:39:33.808Z,3920.00
2018-08-24T10:40:33.764Z,3676.00
2018-08-24T10:41:33.780Z,3596.00
2018-08-24T10:42:33.715Z,4464.00
2018-08-24T10:43:33.798Z,4256.00
2018-08-24T10:44:33.659Z,4100.00
2018-08-24T10:45:33.692Z,3364.00
2018-08-24T10:46:33.631Z,2676.00
2018-08-24T10:47:33.706Z,2652.00
2018-08-24T10:48:33.573Z,2484.00
2018-08-24T10:49:33.729Z,2240.00
2018-08-24T10:50:33.554Z,2240.00
2018-08-24T10:51:33.526Z,2228.00
2018-08-24T10:52:33.496Z,2252.00
2018-08-24T10:53:33.460Z,1836.00
2018-08-24T10:54:33.448Z,1772.00
2018-08-24T10:55:33.413Z,1792.00
2018-08-24T10:56:33.518Z,1724.00
2018-08-24T10:57:33.386Z,1772.00
2018-08-24T10:58:33.334Z,2312.00
2018-08-24T10:59:33.341Z,1892.00
2018-08-24T11:00:34.310Z,1848.00
2018-08-24T11:01:33.271Z,1880.00
2018-08-24T11:02:33.262Z,2344.00
2018-08-24T11:03:33.242Z,2336.00
2018-08-24T11:04:33.309Z,1864.00
2018-08-24T11:05:33.195Z,1840.00
2018-08-24T11:06:35.277Z,2280.00
2018-08-24T11:07:33.165Z,1812.00
2018-08-24T11:08:33.133Z,1828.00
2018-08-24T11:09:33.144Z,2200.00
2018-08-24T11:10:33.070Z,2240.00
2018-08-24T11:11:33.040Z,2228.00
2018-08-24T11:12:35.141Z,2200.00
2018-08-24T11:13:33.023Z,1756.00
2018-08-24T11:14:32.971Z,1704.00
2018-08-24T11:15:32.977Z,2204.00
2018-08-24T11:16:32.933Z,2084.00
2018-08-24T11:17:33.008Z,1788.00
2018-08-24T11:18:32.878Z,1828.00
2018-08-24T11:19:32.856Z,2352.00
2018-08-24T11:20:32.835Z,2412.00
2018-08-24T11:21:32.820Z,1988.00
2018-08-24T11:22:32.807Z,2112.00
2018-08-24T11:24:19.418Z,1980.00
2018-08-24T11:25:19.361Z,2432.00
2018-08-24T11:26:19.468Z,2068.00
2018-08-24T11:27:19.313Z,2000.00
2018-08-24T11:28:19.303Z,2132.00
2018-08-24T11:29:19.292Z,2464.00
2018-08-24T11:30:19.241Z,2844.00
2018-08-24T11:31:19.220Z,3032.00
2018-08-24T11:32:19.211Z,2664.00
2018-08-24T11:33:19.275Z,2784.00
2018-08-24T11:34:19.165Z,3068.00
2018-08-24T11:35:19.133Z,3380.00
2018-08-24T11:36:19.162Z,3440.00
2018-08-24T11:37:19.103Z,3488.00
2018-08-24T11:38:19.070Z,3784.00
2018-08-24T11:39:19.044Z,3784.00
2018-08-24T11:40:19.015Z,3460.00
2018-08-24T11:41:18.990Z,2888.00
2018-08-24T11:42:19.039Z,2372.00
2018-08-24T11:43:18.949Z,2040.00
2018-08-24T11:44:18.935Z,1936.00
2018-08-24T11:45:18.902Z,1952.00
2018-08-24T11:46:18.885Z,2184.00
2018-08-24T11:47:18.970Z,2368.00
2018-08-24T11:48:18.833Z,2592.00
2018-08-24T11:49:18.896Z,2424.00
2018-08-24T11:50:18.785Z,2416.00
2018-08-24T11:51:18.801Z,2280.00
2018-08-24T11:53:04.674Z,2472.00
2018-08-24T11:54:04.679Z,2360.00
2018-08-24T11:55:04.613Z,2436.00
2018-08-24T11:56:04.590Z,2416.00
2018-08-24T11:57:04.548Z,2444.00
2018-08-24T11:58:04.584Z,3032.00
2018-08-24T11:59:04.504Z,4176.00
2018-08-24T12:00:04.576Z,4120.00
2018-08-24T12:01:04.464Z,3760.00
2018-08-24T12:02:04.506Z,3540.00
2018-08-24T12:03:04.404Z,3748.00
2018-08-24T12:04:04.391Z,4412.00
2018-08-24T12:05:04.369Z,4736.00
2018-08-24T12:06:04.339Z,4340.00
2018-08-24T12:07:04.315Z,4808.00
2018-08-24T12:08:04.444Z,4592.00
2018-08-24T12:09:04.310Z,4328.00
2018-08-24T12:10:04.240Z,3432.00
2018-08-24T12:11:04.338Z,3220.00
2018-08-24T12:12:04.240Z,3248.00
2018-08-24T12:13:04.197Z,2988.00
2018-08-24T12:14:04.220Z,4032.00
2018-08-24T12:15:04.169Z,4380.00
2018-08-24T12:16:04.117Z,3732.00
2018-08-24T12:17:04.234Z,4064.00
2018-08-24T12:18:04.076Z,5060.00
2018-08-24T12:19:04.151Z,4888.00
2018-08-24T12:20:04.031Z,4036.00
2018-08-24T12:21:04.071Z,3292.00
2018-08-24T12:22:04.025Z,3024.00
2018-08-24T12:23:04.117Z,2968.00
2018-08-24T12:24:03.936Z,3244.00
2018-08-24T12:25:03.977Z,3820.00
2018-08-24T12:26:03.907Z,4388.00
2018-08-24T12:27:03.939Z,4888.00
2018-08-24T12:28:03.858Z,4540.00
2018-08-24T12:29:50.261Z,4416.00
2018-08-24T12:30:50.212Z,4172.00
2018-08-24T12:32:43.891Z,3024.00
2018-08-24T12:33:43.795Z,2712.00
2018-08-24T12:34:43.822Z,2724.00
2018-08-24T12:35:43.754Z,2800.00
2018-08-24T12:36:43.729Z,2892.00
2018-08-24T12:37:45.530Z,2492.00
2018-08-24T12:38:43.763Z,2380.00
2018-08-24T12:39:43.708Z,2436.00
2018-08-24T12:40:43.636Z,2612.00
2018-08-24T12:41:43.621Z,2788.00
2018-08-24T12:42:43.600Z,3524.00
2018-08-24T12:43:43.618Z,4496.00
2018-08-24T12:44:43.551Z,5064.00
2018-08-24T12:45:43.527Z,5728.00
2018-08-24T12:46:43.522Z,5828.00
2018-08-24T12:47:43.480Z,5408.00
2018-08-24T12:48:43.476Z,4848.00
2018-08-24T12:49:43.449Z,5024.00
2018-08-24T12:50:43.447Z,5428.00
2018-08-24T12:51:43.435Z,4836.00
2018-08-24T12:52:43.382Z,4148.00
2018-08-24T12:53:43.566Z,3844.00
2018-08-24T12:54:43.325Z,3852.00
2018-08-24T12:55:43.323Z,3572.00
2018-08-24T12:57:29.662Z,3168.00
2018-08-24T12:58:29.603Z,3308.00
2018-08-24T12:59:29.578Z,3660.00
2018-08-24T13:00:29.552Z,4188.00
2018-08-24T13:01:29.522Z,3956.00
2018-08-24T13:02:29.505Z,3072.00
2018-08-24T13:03:29.497Z,2780.00
2018-08-24T13:04:29.502Z,2776.00
2018-08-24T13:05:29.448Z,2872.00
2018-08-24T13:06:29.420Z,3248.00
2018-08-24T13:07:29.396Z,3068.00
2018-08-24T13:08:29.400Z,2688.00
2018-08-24T13:09:29.356Z,2544.00
2018-08-24T13:10:29.340Z,2612.00
2018-08-24T13:11:29.312Z,2988.00
2018-08-24T13:12:29.376Z,3272.00
2018-08-24T13:13:29.264Z,3920.00
2018-08-24T13:14:29.283Z,4636.00
2018-08-24T13:15:29.230Z,5168.00
2018-08-24T13:16:29.202Z,5044.00
2018-08-24T13:17:29.169Z,5072.00
2018-08-24T13:18:29.165Z,4676.00
2018-08-24T13:19:29.132Z,4152.00
2018-08-24T13:20:29.195Z,3628.00
2018-08-24T13:21:29.154Z,4076.00
2018-08-24T13:23:15.115Z,4108.00
2018-08-24T13:24:15.018Z,3788.00
2018-08-24T13:25:15.100Z,3376.00
2018-08-24T13:26:14.980Z,3616.00
2018-08-24T13:27:15.018Z,3804.00
2018-08-24T13:28:14.933Z,4188.00
2018-08-24T13:29:15.036Z,4308.00
2018-08-24T13:30:14.890Z,4124.00
2018-08-24T13:31:14.913Z,3936.00
2018-08-24T13:32:14.855Z,3576.00
2018-08-24T13:33:14.828Z,3616.00
2018-08-24T13:34:14.830Z,3572.00
2018-08-24T13:35:14.856Z,3608.00
2018-08-24T13:36:14.748Z,3664.00
2018-08-24T13:37:14.827Z,3568.00
2018-08-24T13:38:14.715Z,3636.00
2018-08-24T13:39:14.786Z,3728.00
2018-08-24T13:40:14.665Z,3864.00
2018-08-24T13:41:14.647Z,3956.00
2018-08-24T13:42:14.623Z,4132.00
2018-08-24T13:43:14.720Z,4148.00
2018-08-24T13:44:14.606Z,4124.00
2018-08-24T13:45:14.575Z,3996.00
2018-08-24T13:47:00.661Z,3692.00
2018-08-24T13:48:00.538Z,3676.00
2018-08-24T13:49:00.532Z,3672.00
2018-08-24T13:50:00.508Z,3684.00
2018-08-24T13:51:00.474Z,3644.00
2018-08-24T13:52:01.552Z,3620.00
2018-08-24T13:53:00.420Z,3892.00
2018-08-24T13:54:00.402Z,4464.00
2018-08-24T13:55:00.380Z,4372.00
2018-08-24T13:56:00.423Z,4428.00
2018-08-24T13:57:00.335Z,4472.00
2018-08-24T13:58:00.323Z,4368.00
2018-08-24T13:59:00.290Z,4232.00
2018-08-24T14:00:00.310Z,4208.00
2018-08-24T14:01:00.279Z,4192.00
2018-08-24T14:02:00.238Z,4244.00
2018-08-24T14:03:00.296Z,4348.00
2018-08-24T14:04:00.181Z,4544.00
2018-08-24T14:05:00.214Z,4708.00
2018-08-24T14:06:00.177Z,4768.00
2018-08-24T14:07:00.221Z,4680.00
2018-08-24T14:08:00.102Z,4664.00
2018-08-24T14:09:00.077Z,4664.00
2018-08-24T14:10:00.145Z,4652.00
2018-08-24T14:11:46.361Z,4804.00
2018-08-24T14:12:46.349Z,4884.00
2018-08-24T14:13:46.242Z,4896.00
2018-08-24T14:14:46.240Z,4876.00
2018-08-24T14:15:46.216Z,4812.00
2018-08-24T14:16:46.187Z,4796.00
2018-08-24T14:17:46.173Z,4716.00
2018-08-24T14:18:46.169Z,4644.00
2018-08-24T14:19:46.145Z,4664.00
2018-08-24T14:20:46.148Z,4660.00
2018-08-24T14:21:46.088Z,4692.00
2018-08-24T14:22:46.130Z,4640.00
2018-08-24T14:23:46.043Z,4644.00
2018-08-24T14:24:46.034Z,4704.00
2018-08-24T14:25:45.991Z,4660.00
2018-08-24T14:26:45.971Z,4672.00
2018-08-24T14:27:45.955Z,4644.00
2018-08-24T14:28:45.928Z,4580.00
2018-08-24T14:29:45.902Z,4520.00
2018-08-24T14:30:45.906Z,4496.00
2018-08-24T14:31:45.959Z,4504.00
2018-08-24T14:32:45.874Z,4544.00
2018-08-24T14:33:45.922Z,4580.00
2018-08-24T14:34:45.797Z,4552.00
2018-08-24T14:35:45.771Z,4576.00
2018-08-24T14:36:45.744Z,4672.00
2018-08-24T14:37:45.725Z,4624.00
2018-08-24T14:39:36.755Z,4492.00
2018-08-24T14:40:36.693Z,4508.00
2018-08-24T14:42:30.944Z,4452.00
2018-08-24T14:43:30.873Z,4500.00
2018-08-24T14:44:30.862Z,4424.00
2018-08-24T14:45:30.831Z,4132.00
2018-08-24T14:46:30.860Z,3936.00
2018-08-24T14:47:30.816Z,3804.00
2018-08-24T14:48:30.961Z,3736.00
2018-08-24T14:49:30.733Z,4072.00
2018-08-24T14:50:30.780Z,4412.00
2018-08-24T14:51:30.728Z,4508.00
2018-08-24T14:52:30.669Z,4516.00
2018-08-24T14:53:30.652Z,4304.00
2018-08-24T14:54:30.643Z,4096.00
2018-08-24T14:55:30.606Z,4308.00
2018-08-24T14:56:30.577Z,4740.00
2018-08-24T14:57:30.655Z,5000.00
2018-08-24T14:58:30.536Z,4944.00
2018-08-24T14:59:30.516Z,4648.00
2018-08-24T15:00:30.500Z,4260.00
2018-08-24T15:01:30.471Z,4048.00
2018-08-24T15:02:30.451Z,3676.00
2018-08-24T15:03:30.422Z,3600.00
2018-08-24T15:04:30.482Z,3952.00
2018-08-24T15:05:31.524Z,4096.00
2018-08-24T15:06:30.374Z,3876.00
2018-08-24T15:07:30.406Z,3632.00
2018-08-24T15:08:30.319Z,3500.00
2018-08-24T15:09:30.398Z,3488.00
2018-08-24T15:10:30.276Z,3584.00
2018-08-24T15:11:30.259Z,3696.00
2018-08-24T15:12:30.246Z,3820.00
2018-08-24T15:13:30.224Z,3960.00
2018-08-24T15:14:30.218Z,4080.00
2018-08-24T15:15:30.180Z,4176.00
2018-08-24T15:16:30.244Z,4196.00
2018-08-24T15:17:30.147Z,4216.00
2018-08-24T15:18:30.117Z,4240.00
2018-08-24T15:20:16.040Z,4264.00
2018-08-24T15:21:16.053Z,4252.00
2018-08-24T15:22:16.005Z,4216.00
2018-08-24T15:23:15.977Z,4140.00
2018-08-24T15:24:15.966Z,4052.00
2018-08-24T15:25:16.111Z,3960.00
2018-08-24T15:26:15.937Z,3888.00
2018-08-24T15:27:16.908Z,3828.00
2018-08-24T15:28:15.824Z,3748.00
2018-08-24T15:29:15.898Z,3656.00
2018-08-24T15:30:15.821Z,3552.00
2018-08-24T15:31:15.806Z,3460.00
2018-08-24T15:32:15.762Z,3364.00
2018-08-24T15:33:15.818Z,3260.00
2018-08-24T15:34:15.691Z,3132.00
2018-08-24T15:35:15.731Z,3040.00
2018-08-24T15:36:15.738Z,2904.00
2018-08-24T15:37:15.643Z,2768.00
2018-08-24T15:38:15.652Z,2644.00
2018-08-24T15:39:15.597Z,2568.00
2018-08-24T15:40:15.812Z,2572.00
2018-08-24T15:41:15.613Z,2624.00
2018-08-24T15:42:15.514Z,2708.00
2018-08-24T15:43:15.496Z,2808.00
2018-08-24T15:44:15.595Z,2868.00
2018-08-24T15:45:15.467Z,2912.00
2018-08-24T15:46:15.524Z,2948.00
2018-08-24T15:47:15.419Z,2984.00
2018-08-24T15:48:15.419Z,2984.00
2018-08-24T15:49:15.367Z,2948.00
2018-08-24T15:50:15.424Z,2868.00
2018-08-24T15:51:15.336Z,2748.00
2018-08-24T15:52:15.292Z,2648.00
2018-08-24T15:53:15.347Z,2608.00
2018-08-24T15:54:15.257Z,2604.00
2018-08-24T15:55:15.267Z,2528.00
2018-08-24T15:56:15.214Z,2392.00
2018-08-24T15:57:15.289Z,2268.00
2018-08-24T15:58:15.170Z,2148.00
2018-08-24T15:59:16.202Z,2108.00
2018-08-24T16:00:15.186Z,2116.00